Tripp, SD

3:36 PM CST on December 09, 2019 (GMT -0600)
Mehlhaff | | Change Station
Active Advisory: Flood Warning

Elev 1387 ft 43.18 °N, 97.81 °W | Updated 8 seconds ago

Clear
Clear
18.9 °F
Feels Like 12 °F
N
4.9
Wind Variable Wind from WNW
Gusts 10.5 mph

Today
High -- | Low -- °F
--% Chance of Precip.
Yesterday
High -- | Low -- °F
Precip. -- in
Pressure 30.09 in
Visibility 10.0 miles
Clouds Clear
Windchill 12 °F
Dew Point 14 °F
Humidity 81%
Rainfall 0.00 in
Snow Depth Not available.
7:51 AM 4:56 PM
Waxing Gibbous, 94% visible
METAR KYKN 092056Z AUTO 29015KT 10SM CLR M09/M14 A2998 RMK AO2 SLP190 T10891139 55003 FZRANO
Pressure 30.09 in
Visibility 10.0 miles
Clouds Clear
Windchill 12 °F
Dew Point 14 °F
Humidity 81%
Rainfall 0.00 in
Snow Depth Not available.
7:51 AM 4:56 PM
Waxing Gibbous, 94% visible
METAR KYKN 092056Z AUTO 29015KT 10SM CLR M09/M14 A2998 RMK AO2 SLP190 T10891139 55003 FZRANO

Get Your Daily Forecast Email!

Thanks for signing up!

Be on the lookout for a verification email in your inbox.

You'll start receiving severe weather alerts in your inbox..

×

10-Day Weather Forecast

Almanac

Astronomy

Dec. 09, 2019 Rise Set
Actual Time
Civil Twilight
Nautical Twilight
Astronomical Twilight
Moon
Length of Visible Light
Length of Day
Tomorrow will be .
, % of the Moon is Illuminated

Today's Extremes

State Highs State Lows

Community

WunderPhotos

Category 6

Welcome to Category 6. This is the collective home for Weather Underground's featured writeups by Dr. Jeff Masters (right), Bob Henson (left), Chris Burt, and other regular contributors.

Nearby

Air Quality

  Air Quality AQ Index Pollutant
Not available.

Snow Depth

Station Depth Elevation

Earthquake Activity

City Distance Mag. Time & Date
Minimum magnitude displayed is 2.5.

Coastal Water Temperatures

Place Temperature

Stations

Nearby Weather Stations

Station Location Temp. Windchill Dew Point Humidity Wind Precip. Elev Updated Type
                   

Watches & Warnings

Flood Warning
Issued: 9:58 AM CST Dec. 9, 2019 – National Weather Service

The Flood Warning continues for
the James River near Scotland.
* Until further notice.
* At 09am Monday the stage was 12.84 feet.
* Minor flooding is forecast.
* Flood stage is 13.00 feet.
* Forecast... rise above flood stage again later today and
continue to rise to near 13.2 feet by Sunday December 15.
* At stages near 13.0 feet... significant agricultural flooding
begins.


Lat... Lon 4338 9777 4340 9763 4321 9755 4308 9736
          4308 9750 4317 9769


Location flood latest observed maximum forecast recent observed
         stage stage time stage time crest time

Missouri River
mrnn1 21.0 23.62 Mon 9 am 25.3 Fri Nov 29

James River
hurs2 11.0 13.82 Mon 9 am 13.9 Sat Dec 07
fors2 12.0 14.19 Mon 9 am 14.4 Sat Nov 30